Snow/Ice From: 17-12-2018 09:00 Until: 17:00 warning for: Snow/Ice Level: Yellow info button
suomi:
Liikennesää: Ajokeli muuttuu huonoksi päivällä lumisateen vuoksi.

svenska:
Trafikvädret: Väglaget blir dåligt på dagen p.g.a. snöfall.

english:
Traffic weather warning: Bad road conditions are expected at noon and in the afternoon because of snow. 


Thunder radar more information blitzortung!


Löydät sääaseman tiedot myös:

European Weather Network

Finland Weather Exchange

Weather Underground

AWEKAS



Weather Underground säähistoriasivu

Päivittäin yhteenveto Huhtikuu 11, 2017 Yksiköt:  Englantilaiset    Metriset   Molemmat
« Edellinen Päivä
Seuraava Päivä »
Päivittäin Viikoittain Kuukausittain Vuosittain Mukautettu
  Korkea: Matala: Keskiarvo:
Lämpötila: TemperatureC °F -2.7 °F 0.1 °F
Kastepiste: DewpointC °F -3.8 °F -0.9 °F
Kosteus: Humidity % 85 % 92 %
Tuulen nopeus: WindSpeedKMH mph 0.0 mph 3.3 mph
Tuulenpuuska: WindSpeedGustKMH mph - -
Tuuli:- - WNW
Ilmanpaine: PressurehPa in 984.0 in -
Sade: 0.0 in    
Historical Graphs
 
 
Taulukkotiedot Huhtikuu 11, 2017
Aika Lämpötila Kastepiste Ilmanpaine Tuuli Tuulen nopeus Tuulenpuuska Kosteus Sademäärä (tunneittain)
TemperatureC °F DewpointC °F PressurehPa in Calm     Humidity % HourlyPrecipMM in
00:00 1.2 °F 0.5 °F 984.0 in West 1.6 mph 8.0 mph 95 % 0.0 in
00:15 0.9 °F 0.4 °F 984.0 in WSW 1.6 mph 8.0 mph 96 % 0.0 in
00:30 0.8 °F 0.1 °F 984.3 in West 3.2 mph 8.0 mph 95 % 0.0 in
00:45 0.7 °F 0.2 °F 984.3 in SW 1.6 mph 8.0 mph 96 % 0.0 in
01:00 0.7 °F 0.2 °F 984.6 in West 3.2 mph 12.9 mph 96 % 0.0 in
01:15 0.7 °F 0.1 °F 984.6 in WNW 3.2 mph 14.5 mph 96 % 0.0 in
01:30 0.7 °F 0.1 °F 984.6 in West 4.8 mph 14.5 mph 96 % 0.0 in
01:45 0.7 °F 0.2 °F 985.0 in West 3.2 mph 16.1 mph 96 % 0.0 in
02:00 0.7 °F 0.2 °F 985.0 in West 3.2 mph 11.3 mph 96 % 0.0 in
02:15 0.7 °F 0.2 °F 985.0 in WSW 1.6 mph 14.5 mph 96 % 0.0 in
02:30 0.8 °F 0.2 °F 985.0 in WSW 1.6 mph 9.7 mph 96 % 0.0 in
02:45 0.8 °F 0.3 °F 985.3 in West 1.6 mph 9.7 mph 96 % 0.0 in
03:00 0.8 °F 0.3 °F 985.3 in Calm   4.8 mph 96 % 0.0 in
03:15 0.9 °F 0.4 °F 985.7 in SW 1.6 mph 11.3 mph 96 % 0.0 in
03:30 1.0 °F 0.4 °F 985.7 in West 1.6 mph 8.0 mph 96 % 0.0 in
03:45 1.1 °F 0.5 °F 985.7 in WSW 1.6 mph 8.0 mph 96 % 0.0 in
04:00 1.1 °F 0.5 °F 986.0 in Calm   4.8 mph 96 % 0.0 in
04:15 1.1 °F 0.5 °F 986.0 in WSW 1.6 mph 4.8 mph 96 % 0.0 in
04:30 1.2 °F 0.6 °F 986.3 in WSW 1.6 mph 11.3 mph 96 % 0.0 in
04:45 1.3 °F 0.9 °F 986.3 in WNW 1.6 mph 8.0 mph 97 % 0.0 in
05:00 1.3 °F 0.9 °F 986.3 in WNW 3.2 mph 12.9 mph 97 % 0.0 in
05:15 1.4 °F 0.8 °F 986.7 in West 1.6 mph 8.0 mph 96 % 0.0 in
05:30 1.4 °F 0.9 °F 986.7 in West 3.2 mph 12.9 mph 96 % 0.0 in
05:45 1.4 °F 0.9 °F 987.0 in West 1.6 mph 14.5 mph 96 % 0.0 in
06:00 1.3 °F 0.8 °F 987.0 in West 3.2 mph 12.9 mph 96 % 0.0 in
06:15 1.3 °F 0.8 °F 987.0 in WNW 3.2 mph 14.5 mph 96 % 0.0 in
06:30 1.3 °F 0.7 °F 987.4 in WNW 4.8 mph 9.7 mph 96 % 0.0 in
06:45 1.3 °F 0.7 °F 987.4 in WNW 3.2 mph 11.3 mph 96 % 0.0 in
07:00 1.3 °F 0.7 °F 987.7 in WNW 4.8 mph 12.9 mph 96 % 0.0 in
07:15 1.3 °F 0.7 °F 987.7 in WNW 3.2 mph 11.3 mph 96 % 0.0 in
07:30 1.3 °F 0.7 °F 988.0 in NW 1.6 mph 8.0 mph 96 % 0.0 in
07:45 1.3 °F 0.7 °F 988.0 in WNW 3.2 mph 9.7 mph 96 % 0.0 in
08:00 1.3 °F 0.8 °F 988.4 in NW 3.2 mph 9.7 mph 96 % 0.0 in
08:15 1.3 °F 0.8 °F 988.4 in NW 6.4 mph 17.7 mph 96 % 0.0 in
08:30 1.3 °F 0.8 °F 988.7 in NW 4.8 mph 12.9 mph 96 % 0.0 in
09:00 1.3 °F 0.7 °F 989.1 in NW 3.2 mph 9.7 mph 96 % 0.0 in
09:15 0.8 °F 0.1 °F 989.4 in NW 3.2 mph 9.7 mph 95 % 0.0 in
09:30 0.8 °F 0.2 °F 989.7 in NW 1.6 mph 8.0 mph 96 % 0.0 in
09:45 0.7 °F 0.2 °F 990.1 in NNW 3.2 mph 12.9 mph 96 % 0.0 in
10:00 0.6 °F 0.0 °F 990.1 in NNW 4.8 mph 17.7 mph 96 % 0.0 in
10:15 0.6 °F 0.0 °F 990.4 in NW 3.2 mph 11.3 mph 96 % 0.0 in
10:30 0.6 °F -0.1 °F 990.7 in NW 3.2 mph 9.7 mph 95 % 0.0 in
10:45 0.7 °F 0.0 °F 991.1 in NW 4.8 mph 19.3 mph 95 % 0.0 in
11:00 0.7 °F -0.2 °F 991.1 in NW 4.8 mph 16.1 mph 94 % 0.0 in
11:15 0.4 °F -0.4 °F 991.4 in North 3.2 mph 9.7 mph 94 % 0.0 in
11:30 0.4 °F -0.3 °F 991.8 in NW 4.8 mph 16.1 mph 95 % 0.0 in
11:45 0.3 °F -0.7 °F 992.1 in NNW 4.8 mph 16.1 mph 93 % 0.0 in
12:00 0.3 °F -0.7 °F 992.4 in NNW 6.4 mph 14.5 mph 93 % 0.0 in
12:15 0.3 °F -0.8 °F 992.8 in North 4.8 mph 11.3 mph 92 % 0.0 in
12:30 0.3 °F -0.9 °F 993.1 in NNW 4.8 mph 16.1 mph 92 % 0.0 in
12:45 0.2 °F -1.1 °F 993.5 in NW 6.4 mph 17.7 mph 91 % 0.0 in
13:00 0.0 °F -1.0 °F 993.8 in North 4.8 mph 14.5 mph 93 % 0.0 in
13:15 -0.1 °F -1.2 °F 994.1 in NNW 4.8 mph 16.1 mph 92 % 0.0 in
13:30 -0.1 °F -1.3 °F 994.5 in NNW 6.4 mph 19.3 mph 91 % 0.0 in
13:45 0.1 °F -1.2 °F 994.8 in NNW 4.8 mph 16.1 mph 91 % 0.0 in
14:00 -0.1 °F -1.3 °F 995.1 in NNW 6.4 mph 12.9 mph 92 % 0.0 in
14:15 -0.3 °F -1.5 °F 995.1 in NNW 6.4 mph 14.5 mph 92 % 0.0 in
14:30 -0.4 °F -1.5 °F 995.5 in NW 8.0 mph 14.5 mph 92 % 0.0 in
14:45 -0.3 °F -1.5 °F 995.8 in NNW 6.4 mph 16.1 mph 92 % 0.0 in
15:00 -0.6 °F -1.5 °F 996.2 in NNW 4.8 mph 12.9 mph 93 % 0.0 in
15:15 -0.5 °F -1.5 °F 996.5 in NNW 6.4 mph 20.9 mph 93 % 0.0 in
15:30 -0.4 °F -1.7 °F 996.8 in NNW 8.0 mph 19.3 mph 91 % 0.0 in
15:45 -0.3 °F -1.6 °F 996.8 in NNW 4.8 mph 14.5 mph 91 % 0.0 in
16:00 -0.4 °F -1.5 °F 997.2 in NNW 4.8 mph 16.1 mph 92 % 0.0 in
16:15 -0.4 °F -1.7 °F 997.5 in North 6.4 mph 14.5 mph 91 % 0.0 in
16:30 -0.3 °F -1.8 °F 997.9 in NNW 6.4 mph 19.3 mph 90 % 0.0 in
16:45 -0.2 °F -1.7 °F 997.9 in NNW 4.8 mph 16.1 mph 90 % 0.0 in
17:00 -0.3 °F -1.9 °F 998.2 in NNW 6.4 mph 17.7 mph 89 % 0.0 in
17:15 -0.3 °F -1.9 °F 998.2 in NNW 4.8 mph 16.1 mph 89 % 0.0 in
17:30 -0.3 °F -2.1 °F 998.5 in NNW 6.4 mph 16.1 mph 88 % 0.0 in
17:45 -0.3 °F -2.4 °F 998.9 in North 8.0 mph 19.3 mph 86 % 0.0 in
18:00 -0.4 °F -2.3 °F 999.2 in NNW 6.4 mph 20.9 mph 87 % 0.0 in
18:15 -0.4 °F -2.3 °F 999.2 in North 4.8 mph 16.1 mph 87 % 0.0 in
18:30 -0.3 °F -2.2 °F 999.5 in NNW 6.4 mph 12.9 mph 87 % 0.0 in
18:45 -0.4 °F -2.4 °F 999.5 in North 3.2 mph 12.9 mph 86 % 0.0 in
19:00 -0.3 °F -2.2 °F 999.5 in North 3.2 mph 14.5 mph 87 % 0.0 in
19:15 -0.3 °F -2.4 °F 999.9 in North 3.2 mph 11.3 mph 86 % 0.0 in
19:30 -0.3 °F -2.3 °F 999.9 in North 3.2 mph 11.3 mph 86 % 0.0 in
19:45 -0.3 °F -2.5 °F 1000.2 in North 3.2 mph 20.9 mph 85 % 0.0 in
20:00 -0.3 °F -2.5 °F 1000.6 in NNW 4.8 mph 14.5 mph 85 % 0.0 in
20:15 -0.4 °F -2.6 °F 1000.6 in Calm   6.4 mph 85 % 0.0 in
20:30 -0.4 °F -2.5 °F 1000.6 in North 1.6 mph 9.7 mph 86 % 0.0 in
20:45 -0.6 °F -2.8 °F 1000.9 in Calm   4.8 mph 85 % 0.0 in
21:00 -0.8 °F -2.8 °F 1000.9 in NW 1.6 mph 6.4 mph 86 % 0.0 in
21:15 -0.9 °F -2.8 °F 1001.2 in Calm   4.8 mph 87 % 0.0 in
21:30 -1.2 °F -3.1 °F 1001.2 in Calm   4.8 mph 87 % 0.0 in
21:45 -1.5 °F -3.2 °F 1001.2 in Calm     88 % 0.0 in
22:00 -1.8 °F -3.4 °F 1000.9 in Calm     89 % 0.0 in
22:15 -2.0 °F -3.4 °F 1000.9 in Calm     90 % 0.0 in
22:30 -2.2 °F -3.5 °F 1001.2 in Calm   3.2 mph 91 % 0.0 in
22:45 -2.3 °F -3.6 °F 1001.2 in Calm   1.6 mph 91 % 0.0 in
23:00 -2.4 °F -3.7 °F 1001.2 in Calm   1.6 mph 91 % 0.0 in
23:15 -2.6 °F -3.8 °F 1001.2 in Calm   4.8 mph 91 % 0.0 in
23:30 -2.7 °F -3.8 °F 1001.2 in Calm   4.8 mph 92 % 0.0 in
23:45 -2.7 °F -3.8 °F 1001.6 in Calm     92 % 0.0 in
Esan sääasema
Terveisin Weather Underground - 2.75 mb

Alkuperäinen skripti  Jim McMurry - jmcmurry@mwt.net Sovitettu myös templatelle  Wim van der Kuil - Leuven-Template.eu

Laitteet joita käytämme:

Sääasema
Davis VP2

Sääasemaohjelma
Cumulus

Sääaseman tietokone
Asus EeePC

Palveluntarjoaja
Suncomet

Davis VP2

Cumulus

Asus EeePC

Suncomet